sensor_id;sensor_type;location;lat;lon;timestamp;pressure;altitude;pressure_sealevel;temperature;humidity
79077;BME280;68477;42.698;23.342;2023-12-14T00:01:42;94423.00;;;5.89;84.29
79077;BME280;68477;42.698;23.342;2023-12-14T00:04:08;94401.84;;;5.67;86.12
79077;BME280;68477;42.698;23.342;2023-12-14T00:06:34;94433.78;;;5.61;86.03
79077;BME280;68477;42.698;23.342;2023-12-14T00:08:59;94386.81;;;5.37;87.36
79077;BME280;68477;42.698;23.342;2023-12-14T00:11:25;94429.84;;;5.41;86.53
79077;BME280;68477;42.698;23.342;2023-12-14T00:13:50;94393.84;;;5.69;86.06
79077;BME280;68477;42.698;23.342;2023-12-14T00:16:16;94399.84;;;5.53;86.15
79077;BME280;68477;42.698;23.342;2023-12-14T00:18:41;94416.97;;;5.64;86.68
79077;BME280;68477;42.698;23.342;2023-12-14T00:21:07;94406.25;;;5.67;86.10
79077;BME280;68477;42.698;23.342;2023-12-14T00:23:34;94405.09;;;5.61;87.25
79077;BME280;68477;42.698;23.342;2023-12-14T00:25:59;94418.94;;;5.70;85.58
79077;BME280;68477;42.698;23.342;2023-12-14T00:28:25;94426.91;;;5.36;87.76
79077;BME280;68477;42.698;23.342;2023-12-14T00:30:50;94414.66;;;5.20;88.86
79077;BME280;68477;42.698;23.342;2023-12-14T00:33:16;94414.72;;;5.44;86.64
79077;BME280;68477;42.698;23.342;2023-12-14T00:35:41;94417.78;;;5.40;86.39
79077;BME280;68477;42.698;23.342;2023-12-14T00:38:07;94406.84;;;5.28;87.33
79077;BME280;68477;42.698;23.342;2023-12-14T00:40:32;94419.69;;;5.13;88.03
79077;BME280;68477;42.698;23.342;2023-12-14T00:42:58;94414.91;;;4.92;89.39
79077;BME280;68477;42.698;23.342;2023-12-14T00:45:23;94414.44;;;4.89;89.57
79077;BME280;68477;42.698;23.342;2023-12-14T00:47:49;94415.41;;;4.88;90.23
79077;BME280;68477;42.698;23.342;2023-12-14T00:50:14;94418.22;;;5.19;88.17
79077;BME280;68477;42.698;23.342;2023-12-14T00:52:40;94423.28;;;5.12;88.39
79077;BME280;68477;42.698;23.342;2023-12-14T00:55:06;94406.53;;;5.31;88.43
79077;BME280;68477;42.698;23.342;2023-12-14T00:57:31;94410.91;;;4.64;90.36
79077;BME280;68477;42.698;23.342;2023-12-14T00:59:57;94389.78;;;4.75;90.31
79077;BME280;68477;42.698;23.342;2023-12-14T01:02:22;94421.66;;;5.11;89.19
79077;BME280;68477;42.698;23.342;2023-12-14T01:04:48;94416.13;;;5.14;88.96
79077;BME280;68477;42.698;23.342;2023-12-14T01:07:13;94417.34;;;4.94;89.43
79077;BME280;68477;42.698;23.342;2023-12-14T01:09:39;94406.09;;;4.85;90.10
79077;BME280;68477;42.698;23.342;2023-12-14T01:12:04;94407.72;;;4.78;90.95
79077;BME280;68477;42.698;23.342;2023-12-14T01:14:30;94424.44;;;4.67;91.34
79077;BME280;68477;42.698;23.342;2023-12-14T01:16:55;94412.88;;;4.70;90.88
79077;BME280;68477;42.698;23.342;2023-12-14T01:19:21;94417.25;;;5.12;89.12
79077;BME280;68477;42.698;23.342;2023-12-14T01:21:46;94406.28;;;4.92;90.21
79077;BME280;68477;42.698;23.342;2023-12-14T01:24:12;94405.56;;;5.24;88.35
79077;BME280;68477;42.698;23.342;2023-12-14T01:26:37;94403.38;;;5.03;89.18
79077;BME280;68477;42.698;23.342;2023-12-14T01:29:02;94412.47;;;4.49;92.15
79077;BME280;68477;42.698;23.342;2023-12-14T01:31:28;94398.44;;;4.76;90.59
79077;BME280;68477;42.698;23.342;2023-12-14T01:33:54;94399.59;;;4.81;90.66
79077;BME280;68477;42.698;23.342;2023-12-14T01:36:23;94410.25;;;5.12;88.74
79077;BME280;68477;42.698;23.342;2023-12-14T01:38:49;94415.44;;;4.54;92.22
79077;BME280;68477;42.698;23.342;2023-12-14T01:41:15;94422.13;;;4.56;91.91
79077;BME280;68477;42.698;23.342;2023-12-14T01:43:41;94413.16;;;4.59;91.92
79077;BME280;68477;42.698;23.342;2023-12-14T01:46:06;94418.44;;;4.41;92.97
79077;BME280;68477;42.698;23.342;2023-12-14T01:48:32;94390.19;;;4.46;93.38
79077;BME280;68477;42.698;23.342;2023-12-14T01:50:58;94400.88;;;4.85;90.58
79077;BME280;68477;42.698;23.342;2023-12-14T01:53:23;94395.66;;;4.85;91.45
79077;BME280;68477;42.698;23.342;2023-12-14T01:55:49;94399.81;;;5.04;90.12
79077;BME280;68477;42.698;23.342;2023-12-14T01:58:14;94399.28;;;4.92;89.65
79077;BME280;68477;42.698;23.342;2023-12-14T02:00:49;94377.13;;;4.96;90.36
79077;BME280;68477;42.698;23.342;2023-12-14T02:03:16;94406.91;;;4.86;90.30
79077;BME280;68477;42.698;23.342;2023-12-14T02:05:42;94373.94;;;5.35;89.26
79077;BME280;68477;42.698;23.342;2023-12-14T02:08:07;94390.03;;;5.06;89.27
79077;BME280;68477;42.698;23.342;2023-12-14T02:10:33;94389.19;;;4.97;91.47
79077;BME280;68477;42.698;23.342;2023-12-14T02:13:01;94379.81;;;5.37;89.57
79077;BME280;68477;42.698;23.342;2023-12-14T02:15:27;94384.81;;;5.06;89.80
79077;BME280;68477;42.698;23.342;2023-12-14T02:17:52;94387.63;;;5.21;89.36
79077;BME280;68477;42.698;23.342;2023-12-14T02:20:18;94375.22;;;5.15;90.10
79077;BME280;68477;42.698;23.342;2023-12-14T02:25:18;94373.00;;;4.70;91.65
79077;BME280;68477;42.698;23.342;2023-12-14T02:27:44;94380.25;;;5.08;90.53
79077;BME280;68477;42.698;23.342;2023-12-14T02:30:11;94369.66;;;4.93;91.04
79077;BME280;68477;42.698;23.342;2023-12-14T02:32:40;94377.28;;;4.87;91.46
79077;BME280;68477;42.698;23.342;2023-12-14T02:35:07;94376.50;;;4.94;90.94
79077;BME280;68477;42.698;23.342;2023-12-14T02:37:33;94353.28;;;4.59;92.68
79077;BME280;68477;42.698;23.342;2023-12-14T02:40:03;94369.47;;;4.87;91.21
79077;BME280;68477;42.698;23.342;2023-12-14T02:42:30;94373.16;;;4.68;91.76
79077;BME280;68477;42.698;23.342;2023-12-14T02:44:56;94386.06;;;4.78;92.24
79077;BME280;68477;42.698;23.342;2023-12-14T02:47:22;94360.81;;;4.70;92.59
79077;BME280;68477;42.698;23.342;2023-12-14T02:49:47;94376.25;;;4.72;92.69
79077;BME280;68477;42.698;23.342;2023-12-14T02:52:14;94400.19;;;4.75;91.82
79077;BME280;68477;42.698;23.342;2023-12-14T02:54:40;94372.16;;;4.61;92.75
79077;BME280;68477;42.698;23.342;2023-12-14T02:57:06;94378.44;;;4.92;92.11
79077;BME280;68477;42.698;23.342;2023-12-14T02:59:31;94383.84;;;4.99;91.53
79077;BME280;68477;42.698;23.342;2023-12-14T03:01:57;94371.13;;;4.46;92.85
79077;BME280;68477;42.698;23.342;2023-12-14T03:04:22;94419.94;;;4.86;91.67
79077;BME280;68477;42.698;23.342;2023-12-14T03:06:50;94374.06;;;4.43;94.08
79077;BME280;68477;42.698;23.342;2023-12-14T03:09:15;94385.72;;;4.73;93.36
79077;BME280;68477;42.698;23.342;2023-12-14T03:11:41;94379.81;;;4.54;93.40
79077;BME280;68477;42.698;23.342;2023-12-14T03:14:06;94363.72;;;4.67;93.45
79077;BME280;68477;42.698;23.342;2023-12-14T03:16:32;94355.66;;;5.03;91.44
79077;BME280;68477;42.698;23.342;2023-12-14T03:18:57;94347.09;;;4.60;93.33
79077;BME280;68477;42.698;23.342;2023-12-14T03:21:23;94344.25;;;5.04;92.23
79077;BME280;68477;42.698;23.342;2023-12-14T03:23:49;94365.91;;;4.96;91.88
79077;BME280;68477;42.698;23.342;2023-12-14T03:26:15;94360.75;;;4.54;93.17
79077;BME280;68477;42.698;23.342;2023-12-14T03:28:40;94357.25;;;4.79;92.79
79077;BME280;68477;42.698;23.342;2023-12-14T03:31:06;94349.91;;;4.83;92.21
79077;BME280;68477;42.698;23.342;2023-12-14T03:33:31;94346.00;;;4.87;91.70
79077;BME280;68477;42.698;23.342;2023-12-14T03:35:57;94346.28;;;4.59;92.73
79077;BME280;68477;42.698;23.342;2023-12-14T03:38:23;94351.44;;;4.51;94.04
79077;BME280;68477;42.698;23.342;2023-12-14T03:40:49;94333.31;;;4.76;93.17
79077;BME280;68477;42.698;23.342;2023-12-14T03:43:14;94344.72;;;4.83;91.69
79077;BME280;68477;42.698;23.342;2023-12-14T03:45:40;94326.00;;;4.29;94.48
79077;BME280;68477;42.698;23.342;2023-12-14T03:48:05;94331.16;;;4.63;93.63
79077;BME280;68477;42.698;23.342;2023-12-14T03:50:31;94341.28;;;4.66;93.75
79077;BME280;68477;42.698;23.342;2023-12-14T03:52:58;94329.00;;;4.42;94.48
79077;BME280;68477;42.698;23.342;2023-12-14T03:55:24;94328.00;;;4.43;94.25
79077;BME280;68477;42.698;23.342;2023-12-14T03:57:50;94329.19;;;4.57;93.15
79077;BME280;68477;42.698;23.342;2023-12-14T04:00:15;94322.84;;;4.17;95.42
79077;BME280;68477;42.698;23.342;2023-12-14T04:02:41;94331.31;;;4.61;93.81
79077;BME280;68477;42.698;23.342;2023-12-14T04:05:07;94333.91;;;4.11;95.42
79077;BME280;68477;42.698;23.342;2023-12-14T04:07:38;94329.97;;;4.49;94.20
79077;BME280;68477;42.698;23.342;2023-12-14T04:10:09;94351.38;;;4.27;95.30
79077;BME280;68477;42.698;23.342;2023-12-14T04:12:38;94341.66;;;4.37;95.45
79077;BME280;68477;42.698;23.342;2023-12-14T04:15:04;94335.94;;;4.33;95.57
79077;BME280;68477;42.698;23.342;2023-12-14T04:17:30;94353.03;;;4.36;95.05
79077;BME280;68477;42.698;23.342;2023-12-14T04:19:56;94348.56;;;4.62;93.64
79077;BME280;68477;42.698;23.342;2023-12-14T04:22:22;94339.81;;;4.72;93.18
79077;BME280;68477;42.698;23.342;2023-12-14T04:24:47;94346.25;;;4.43;95.24
79077;BME280;68477;42.698;23.342;2023-12-14T04:27:13;94360.88;;;4.52;94.28
79077;BME280;68477;42.698;23.342;2023-12-14T04:29:38;94351.69;;;4.24;94.85
79077;BME280;68477;42.698;23.342;2023-12-14T04:32:04;94348.50;;;4.04;96.91
79077;BME280;68477;42.698;23.342;2023-12-14T04:34:30;94350.59;;;4.34;94.39
79077;BME280;68477;42.698;23.342;2023-12-14T04:36:55;94355.84;;;4.51;93.04
79077;BME280;68477;42.698;23.342;2023-12-14T04:39:23;94350.44;;;4.02;95.32
79077;BME280;68477;42.698;23.342;2023-12-14T04:41:50;94362.56;;;4.19;94.29
79077;BME280;68477;42.698;23.342;2023-12-14T04:44:16;94367.13;;;3.91;95.02
79077;BME280;68477;42.698;23.342;2023-12-14T04:46:41;94342.00;;;3.74;96.58
79077;BME280;68477;42.698;23.342;2023-12-14T04:49:07;94357.03;;;4.22;94.93
79077;BME280;68477;42.698;23.342;2023-12-14T04:51:33;94350.63;;;3.74;96.90
79077;BME280;68477;42.698;23.342;2023-12-14T04:53:58;94353.75;;;4.12;94.72
79077;BME280;68477;42.698;23.342;2023-12-14T04:56:24;94363.06;;;4.23;94.09
79077;BME280;68477;42.698;23.342;2023-12-14T04:58:49;94366.03;;;4.02;95.70
79077;BME280;68477;42.698;23.342;2023-12-14T05:01:15;94370.88;;;4.23;94.32
79077;BME280;68477;42.698;23.342;2023-12-14T05:03:40;94346.69;;;4.30;93.85
79077;BME280;68477;42.698;23.342;2023-12-14T05:06:06;94345.78;;;4.14;95.00
79077;BME280;68477;42.698;23.342;2023-12-14T05:08:32;94344.63;;;3.82;95.73
79077;BME280;68477;42.698;23.342;2023-12-14T05:10:59;94339.13;;;3.85;95.27
79077;BME280;68477;42.698;23.342;2023-12-14T05:13:25;94348.00;;;4.00;96.49
79077;BME280;68477;42.698;23.342;2023-12-14T05:15:51;94351.88;;;4.30;94.22
79077;BME280;68477;42.698;23.342;2023-12-14T05:18:17;94347.50;;;4.39;93.92
79077;BME280;68477;42.698;23.342;2023-12-14T05:20:43;94346.38;;;4.33;94.27
79077;BME280;68477;42.698;23.342;2023-12-14T05:23:10;94350.47;;;4.52;93.64
79077;BME280;68477;42.698;23.342;2023-12-14T05:25:36;94362.09;;;4.74;93.12
79077;BME280;68477;42.698;23.342;2023-12-14T05:28:01;94350.94;;;4.39;93.57
79077;BME280;68477;42.698;23.342;2023-12-14T05:30:27;94360.22;;;4.42;94.40
79077;BME280;68477;42.698;23.342;2023-12-14T05:32:52;94354.19;;;4.42;94.03
79077;BME280;68477;42.698;23.342;2023-12-14T05:35:18;94367.19;;;4.42;94.36
79077;BME280;68477;42.698;23.342;2023-12-14T05:37:43;94350.78;;;4.07;96.28
79077;BME280;68477;42.698;23.342;2023-12-14T05:40:10;94381.66;;;4.36;95.12
79077;BME280;68477;42.698;23.342;2023-12-14T05:42:35;94386.00;;;4.27;94.55
79077;BME280;68477;42.698;23.342;2023-12-14T05:45:01;94372.06;;;4.36;95.42
79077;BME280;68477;42.698;23.342;2023-12-14T05:47:28;94380.72;;;4.45;94.91
79077;BME280;68477;42.698;23.342;2023-12-14T05:49:55;94377.13;;;4.80;92.51
79077;BME280;68477;42.698;23.342;2023-12-14T05:52:21;94361.91;;;4.59;95.11
79077;BME280;68477;42.698;23.342;2023-12-14T05:54:46;94386.72;;;3.77;97.88
79077;BME280;68477;42.698;23.342;2023-12-14T05:57:12;94386.34;;;3.98;98.08
79077;BME280;68477;42.698;23.342;2023-12-14T05:59:38;94389.34;;;4.46;95.74
79077;BME280;68477;42.698;23.342;2023-12-14T06:02:04;94376.94;;;4.31;95.24
79077;BME280;68477;42.698;23.342;2023-12-14T06:04:32;94375.16;;;4.40;96.29
79077;BME280;68477;42.698;23.342;2023-12-14T06:06:57;94382.44;;;4.28;96.65
79077;BME280;68477;42.698;23.342;2023-12-14T06:09:23;94380.13;;;4.59;95.37
79077;BME280;68477;42.698;23.342;2023-12-14T06:11:54;94389.72;;;3.91;97.68
79077;BME280;68477;42.698;23.342;2023-12-14T06:14:20;94377.41;;;4.69;95.33
79077;BME280;68477;42.698;23.342;2023-12-14T06:16:46;94371.09;;;4.80;95.37
79077;BME280;68477;42.698;23.342;2023-12-14T06:19:11;94392.94;;;4.95;93.35
79077;BME280;68477;42.698;23.342;2023-12-14T06:21:37;94394.38;;;4.81;93.38
79077;BME280;68477;42.698;23.342;2023-12-14T06:24:02;94384.88;;;5.63;89.39
79077;BME280;68477;42.698;23.342;2023-12-14T06:26:28;94405.72;;;5.63;89.54
79077;BME280;68477;42.698;23.342;2023-12-14T06:28:54;94408.97;;;5.24;90.82
79077;BME280;68477;42.698;23.342;2023-12-14T06:31:20;94406.22;;;5.42;91.09
79077;BME280;68477;42.698;23.342;2023-12-14T06:33:47;94407.03;;;5.35;91.81
79077;BME280;68477;42.698;23.342;2023-12-14T06:36:16;94407.88;;;5.60;89.46
79077;BME280;68477;42.698;23.342;2023-12-14T06:38:42;94401.50;;;5.46;90.98
79077;BME280;68477;42.698;23.342;2023-12-14T06:41:08;94409.59;;;5.18;92.30
79077;BME280;68477;42.698;23.342;2023-12-14T06:43:43;94428.38;;;5.38;91.93
79077;BME280;68477;42.698;23.342;2023-12-14T06:46:08;94422.81;;;5.25;91.28
79077;BME280;68477;42.698;23.342;2023-12-14T06:48:34;94419.22;;;5.10;92.95
79077;BME280;68477;42.698;23.342;2023-12-14T06:50:59;94418.41;;;5.17;92.84
79077;BME280;68477;42.698;23.342;2023-12-14T06:53:24;94440.25;;;4.74;94.16
79077;BME280;68477;42.698;23.342;2023-12-14T06:55:50;94426.97;;;4.93;94.09
79077;BME280;68477;42.698;23.342;2023-12-14T06:58:17;94430.66;;;5.33;92.64
79077;BME280;68477;42.698;23.342;2023-12-14T07:00:43;94424.94;;;5.38;91.34
79077;BME280;68477;42.698;23.342;2023-12-14T07:03:08;94413.41;;;5.48;90.76
79077;BME280;68477;42.698;23.342;2023-12-14T07:05:34;94445.19;;;5.44;91.98
79077;BME280;68477;42.698;23.342;2023-12-14T07:07:59;94412.91;;;5.69;90.05
79077;BME280;68477;42.698;23.342;2023-12-14T07:10:26;94429.88;;;5.81;89.38
79077;BME280;68477;42.698;23.342;2023-12-14T07:12:51;94434.13;;;6.07;89.20
79077;BME280;68477;42.698;23.342;2023-12-14T07:15:17;94426.47;;;6.05;88.98
79077;BME280;68477;42.698;23.342;2023-12-14T07:17:43;94446.50;;;6.21;88.21
79077;BME280;68477;42.698;23.342;2023-12-14T07:20:10;94457.41;;;6.41;87.76
79077;BME280;68477;42.698;23.342;2023-12-14T07:22:37;94456.78;;;6.31;87.73
79077;BME280;68477;42.698;23.342;2023-12-14T07:25:03;94446.47;;;6.46;87.38
79077;BME280;68477;42.698;23.342;2023-12-14T07:27:29;94464.56;;;6.55;86.48
79077;BME280;68477;42.698;23.342;2023-12-14T07:29:55;94460.03;;;6.41;86.90
79077;BME280;68477;42.698;23.342;2023-12-14T07:32:21;94459.03;;;6.50;87.30
79077;BME280;68477;42.698;23.342;2023-12-14T07:34:46;94466.84;;;6.58;86.97
79077;BME280;68477;42.698;23.342;2023-12-14T07:37:12;94441.38;;;6.60;86.79
79077;BME280;68477;42.698;23.342;2023-12-14T07:39:38;94438.94;;;6.51;88.77
79077;BME280;68477;42.698;23.342;2023-12-14T07:42:04;94456.34;;;6.66;89.05
79077;BME280;68477;42.698;23.342;2023-12-14T07:44:30;94454.16;;;6.47;89.21
79077;BME280;68477;42.698;23.342;2023-12-14T07:46:59;94471.03;;;6.76;88.26
79077;BME280;68477;42.698;23.342;2023-12-14T07:49:25;94475.25;;;6.93;86.44
79077;BME280;68477;42.698;23.342;2023-12-14T07:51:51;94472.03;;;6.75;87.62
79077;BME280;68477;42.698;23.342;2023-12-14T07:54:17;94468.22;;;6.93;86.12
79077;BME280;68477;42.698;23.342;2023-12-14T07:56:43;94472.56;;;7.40;83.00
79077;BME280;68477;42.698;23.342;2023-12-14T07:59:09;94459.44;;;7.17;83.46
79077;BME280;68477;42.698;23.342;2023-12-14T08:01:35;94473.56;;;7.39;83.79
79077;BME280;68477;42.698;23.342;2023-12-14T08:04:01;94473.66;;;7.46;84.24
79077;BME280;68477;42.698;23.342;2023-12-14T08:06:27;94473.81;;;7.75;82.93
79077;BME280;68477;42.698;23.342;2023-12-14T08:08:52;94469.78;;;8.10;83.76
79077;BME280;68477;42.698;23.342;2023-12-14T08:11:18;94469.63;;;8.27;77.70
79077;BME280;68477;42.698;23.342;2023-12-14T08:13:43;94464.06;;;8.30;76.31
79077;BME280;68477;42.698;23.342;2023-12-14T08:16:09;94471.78;;;8.08;78.21
79077;BME280;68477;42.698;23.342;2023-12-14T08:18:37;94455.63;;;8.05;79.17
79077;BME280;68477;42.698;23.342;2023-12-14T08:21:03;94465.50;;;8.32;77.22
79077;BME280;68477;42.698;23.342;2023-12-14T08:23:29;94475.06;;;8.25;78.88
79077;BME280;68477;42.698;23.342;2023-12-14T08:25:57;94484.25;;;8.44;78.54
79077;BME280;68477;42.698;23.342;2023-12-14T08:28:23;94477.91;;;8.61;77.96
79077;BME280;68477;42.698;23.342;2023-12-14T08:30:49;94475.72;;;8.80;73.92
79077;BME280;68477;42.698;23.342;2023-12-14T08:33:15;94480.78;;;8.66;74.96
79077;BME280;68477;42.698;23.342;2023-12-14T08:35:40;94481.50;;;8.75;76.28
79077;BME280;68477;42.698;23.342;2023-12-14T08:38:06;94474.91;;;8.64;77.20
79077;BME280;68477;42.698;23.342;2023-12-14T08:40:32;94471.66;;;8.77;76.48
79077;BME280;68477;42.698;23.342;2023-12-14T08:42:57;94474.19;;;9.00;76.30
79077;BME280;68477;42.698;23.342;2023-12-14T08:45:23;94478.84;;;9.34;74.02
79077;BME280;68477;42.698;23.342;2023-12-14T08:47:48;94475.50;;;9.25;73.36
79077;BME280;68477;42.698;23.342;2023-12-14T08:50:14;94470.88;;;9.27;74.15
79077;BME280;68477;42.698;23.342;2023-12-14T08:52:40;94468.47;;;9.62;72.73
79077;BME280;68477;42.698;23.342;2023-12-14T08:55:06;94478.81;;;9.85;71.87
79077;BME280;68477;42.698;23.342;2023-12-14T08:57:31;94473.75;;;10.05;69.66
79077;BME280;68477;42.698;23.342;2023-12-14T08:59:58;94479.75;;;10.20;68.85
79077;BME280;68477;42.698;23.342;2023-12-14T09:02:23;94472.16;;;10.25;68.34
79077;BME280;68477;42.698;23.342;2023-12-14T09:04:49;94476.88;;;10.36;67.47
79077;BME280;68477;42.698;23.342;2023-12-14T09:07:14;94482.31;;;10.56;67.33
79077;BME280;68477;42.698;23.342;2023-12-14T09:09:40;94488.41;;;10.63;66.67
79077;BME280;68477;42.698;23.342;2023-12-14T09:12:05;94486.78;;;10.62;66.22
79077;BME280;68477;42.698;23.342;2023-12-14T09:14:31;94467.75;;;10.60;66.48
79077;BME280;68477;42.698;23.342;2023-12-14T09:16:57;94466.72;;;10.55;66.30
79077;BME280;68477;42.698;23.342;2023-12-14T09:19:22;94461.00;;;10.44;66.93
79077;BME280;68477;42.698;23.342;2023-12-14T09:21:48;94460.28;;;10.64;66.31
79077;BME280;68477;42.698;23.342;2023-12-14T09:24:14;94472.50;;;10.71;66.13
79077;BME280;68477;42.698;23.342;2023-12-14T09:26:39;94472.03;;;10.61;66.34
79077;BME280;68477;42.698;23.342;2023-12-14T09:29:05;94453.53;;;10.48;67.19
79077;BME280;68477;42.698;23.342;2023-12-14T09:31:30;94463.44;;;10.53;66.55
79077;BME280;68477;42.698;23.342;2023-12-14T09:33:56;94478.56;;;10.72;66.75
79077;BME280;68477;42.698;23.342;2023-12-14T09:36:21;94475.84;;;10.59;66.36
79077;BME280;68477;42.698;23.342;2023-12-14T09:38:47;94476.28;;;10.62;67.19
79077;BME280;68477;42.698;23.342;2023-12-14T09:41:13;94482.50;;;10.55;69.59
79077;BME280;68477;42.698;23.342;2023-12-14T09:43:38;94481.06;;;10.80;68.81
79077;BME280;68477;42.698;23.342;2023-12-14T09:46:04;94474.97;;;10.79;69.48
79077;BME280;68477;42.698;23.342;2023-12-14T09:48:31;94477.81;;;10.78;68.62
79077;BME280;68477;42.698;23.342;2023-12-14T09:50:58;94486.88;;;11.03;68.04
79077;BME280;68477;42.698;23.342;2023-12-14T09:53:24;94480.25;;;11.14;67.76
79077;BME280;68477;42.698;23.342;2023-12-14T09:55:49;94496.91;;;11.28;65.40
79077;BME280;68477;42.698;23.342;2023-12-14T09:58:15;94506.69;;;11.41;64.52
79077;BME280;68477;42.698;23.342;2023-12-14T10:00:41;94501.69;;;11.52;63.62
79077;BME280;68477;42.698;23.342;2023-12-14T10:03:21;94497.66;;;11.56;63.08
79077;BME280;68477;42.698;23.342;2023-12-14T10:05:47;94503.66;;;11.44;64.19
79077;BME280;68477;42.698;23.342;2023-12-14T10:08:15;94496.41;;;11.46;63.81
79077;BME280;68477;42.698;23.342;2023-12-14T10:10:42;94480.97;;;11.36;63.36
79077;BME280;68477;42.698;23.342;2023-12-14T10:13:07;94485.97;;;11.24;64.49
79077;BME280;68477;42.698;23.342;2023-12-14T10:15:43;94486.97;;;11.23;65.42
79077;BME280;68477;42.698;23.342;2023-12-14T10:18:09;94492.25;;;11.23;64.22
79077;BME280;68477;42.698;23.342;2023-12-14T10:20:34;94499.13;;;11.24;64.43
79077;BME280;68477;42.698;23.342;2023-12-14T10:23:03;94494.06;;;11.23;64.10
79077;BME280;68477;42.698;23.342;2023-12-14T10:25:29;94490.78;;;11.14;64.68
79077;BME280;68477;42.698;23.342;2023-12-14T10:27:57;94484.44;;;11.02;65.58
79077;BME280;68477;42.698;23.342;2023-12-14T10:30:22;94482.63;;;11.09;65.07
79077;BME280;68477;42.698;23.342;2023-12-14T10:32:48;94485.91;;;11.11;65.10
79077;BME280;68477;42.698;23.342;2023-12-14T10:35:17;94482.03;;;11.07;65.73
79077;BME280;68477;42.698;23.342;2023-12-14T10:37:46;94501.91;;;11.16;65.45
79077;BME280;68477;42.698;23.342;2023-12-14T10:40:14;94504.06;;;11.06;66.23
79077;BME280;68477;42.698;23.342;2023-12-14T10:42:44;94509.41;;;11.19;65.93
79077;BME280;68477;42.698;23.342;2023-12-14T10:45:13;94515.88;;;11.10;67.29
79077;BME280;68477;42.698;23.342;2023-12-14T10:47:46;94509.13;;;11.01;69.67
79077;BME280;68477;42.698;23.342;2023-12-14T10:50:12;94518.78;;;10.94;71.36
79077;BME280;68477;42.698;23.342;2023-12-14T10:52:39;94524.56;;;10.83;72.60
79077;BME280;68477;42.698;23.342;2023-12-14T10:55:08;94531.84;;;10.81;74.01
79077;BME280;68477;42.698;23.342;2023-12-14T10:57:35;94549.06;;;10.83;74.28
79077;BME280;68477;42.698;23.342;2023-12-14T11:00:03;94544.19;;;10.80;75.83
79077;BME280;68477;42.698;23.342;2023-12-14T11:02:30;94540.44;;;10.68;77.34
79077;BME280;68477;42.698;23.342;2023-12-14T11:05:02;94558.09;;;10.74;77.43
79077;BME280;68477;42.698;23.342;2023-12-14T11:07:53;94562.53;;;10.73;77.53
79077;BME280;68477;42.698;23.342;2023-12-14T11:10:27;94559.69;;;10.47;78.61
79077;BME280;68477;42.698;23.342;2023-12-14T11:12:57;94556.97;;;10.40;77.91
79077;BME280;68477;42.698;23.342;2023-12-14T11:15:25;94561.13;;;10.49;76.65
79077;BME280;68477;42.698;23.342;2023-12-14T11:20:53;94562.50;;;10.24;76.25
79077;BME280;68477;42.698;23.342;2023-12-14T11:23:28;94562.44;;;10.03;76.22
79077;BME280;68477;42.698;23.342;2023-12-14T11:28:26;94562.22;;;9.83;75.51
79077;BME280;68477;42.698;23.342;2023-12-14T11:30:53;94583.44;;;9.67;76.88
79077;BME280;68477;42.698;23.342;2023-12-14T11:33:19;94591.38;;;9.73;75.19
79077;BME280;68477;42.698;23.342;2023-12-14T11:35:44;94594.75;;;9.67;74.28
79077;BME280;68477;42.698;23.342;2023-12-14T11:38:10;94593.41;;;9.56;74.64
79077;BME280;68477;42.698;23.342;2023-12-14T11:40:39;94595.66;;;9.59;74.18
79077;BME280;68477;42.698;23.342;2023-12-14T11:43:05;94601.44;;;9.70;73.83
79077;BME280;68477;42.698;23.342;2023-12-14T11:45:36;94608.16;;;9.57;74.41
79077;BME280;68477;42.698;23.342;2023-12-14T11:48:06;94612.69;;;9.49;74.11
79077;BME280;68477;42.698;23.342;2023-12-14T11:50:33;94598.31;;;9.45;73.97
79077;BME280;68477;42.698;23.342;2023-12-14T11:53:00;94626.06;;;9.39;73.82
79077;BME280;68477;42.698;23.342;2023-12-14T11:55:26;94614.69;;;9.32;74.27
79077;BME280;68477;42.698;23.342;2023-12-14T11:57:52;94629.44;;;9.33;73.97
79077;BME280;68477;42.698;23.342;2023-12-14T12:00:23;94634.22;;;9.44;73.35
79077;BME280;68477;42.698;23.342;2023-12-14T12:02:49;94652.97;;;9.41;73.39
79077;BME280;68477;42.698;23.342;2023-12-14T12:05:15;94638.66;;;9.29;73.73
79077;BME280;68477;42.698;23.342;2023-12-14T12:07:47;94647.34;;;9.29;73.22
79077;BME280;68477;42.698;23.342;2023-12-14T12:10:12;94662.63;;;9.26;73.72
79077;BME280;68477;42.698;23.342;2023-12-14T12:12:38;94645.34;;;9.31;74.00
79077;BME280;68477;42.698;23.342;2023-12-14T12:15:04;94662.44;;;9.27;74.64
79077;BME280;68477;42.698;23.342;2023-12-14T12:17:30;94656.19;;;9.28;74.06
79077;BME280;68477;42.698;23.342;2023-12-14T12:20:04;94657.09;;;9.21;74.85
79077;BME280;68477;42.698;23.342;2023-12-14T12:22:29;94652.09;;;9.11;74.90
79077;BME280;68477;42.698;23.342;2023-12-14T12:24:55;94652.50;;;9.23;73.90
79077;BME280;68477;42.698;23.342;2023-12-14T12:27:20;94659.03;;;9.04;74.26
79077;BME280;68477;42.698;23.342;2023-12-14T12:29:46;94652.56;;;9.15;74.62
79077;BME280;68477;42.698;23.342;2023-12-14T12:32:11;94653.47;;;9.07;74.23
79077;BME280;68477;42.698;23.342;2023-12-14T12:34:37;94649.72;;;9.01;74.91
79077;BME280;68477;42.698;23.342;2023-12-14T12:37:02;94646.41;;;9.08;74.81
79077;BME280;68477;42.698;23.342;2023-12-14T12:39:28;94646.66;;;8.98;75.16
79077;BME280;68477;42.698;23.342;2023-12-14T12:41:54;94646.84;;;8.96;74.89
79077;BME280;68477;42.698;23.342;2023-12-14T12:44:19;94662.91;;;8.93;75.76
79077;BME280;68477;42.698;23.342;2023-12-14T12:46:45;94644.81;;;8.84;76.29
79077;BME280;68477;42.698;23.342;2023-12-14T12:49:10;94652.25;;;8.95;75.72
79077;BME280;68477;42.698;23.342;2023-12-14T12:51:36;94665.53;;;8.93;76.05
79077;BME280;68477;42.698;23.342;2023-12-14T12:54:02;94653.16;;;8.64;76.98
79077;BME280;68477;42.698;23.342;2023-12-14T12:56:29;94661.22;;;8.78;76.58
79077;BME280;68477;42.698;23.342;2023-12-14T12:58:54;94677.25;;;8.83;77.35
79077;BME280;68477;42.698;23.342;2023-12-14T13:01:21;94658.75;;;8.84;77.28